sensor_id;sensor_type;location;lat;lon;timestamp;temperature;humidity
18839;DHT22;9548;56.920;14.804;2022-11-15T11:45:56;9.00;99.90
18839;DHT22;9548;56.920;14.804;2022-11-15T11:48:39;9.00;99.90
18839;DHT22;9548;56.920;14.804;2022-11-15T11:51:13;9.00;99.90
18839;DHT22;9548;56.920;14.804;2022-11-15T11:53:45;9.00;99.90
18839;DHT22;9548;56.920;14.804;2022-11-15T11:56:19;9.00;99.90
18839;DHT22;9548;56.920;14.804;2022-11-15T11:58:50;8.90;99.90
18839;DHT22;9548;56.920;14.804;2022-11-15T12:01:23;8.90;99.90
18839;DHT22;9548;56.920;14.804;2022-11-15T12:03:55;8.90;99.90
18839;DHT22;9548;56.920;14.804;2022-11-15T12:06:30;8.80;99.90
18839;DHT22;9548;56.920;14.804;2022-11-15T12:09:02;8.80;99.90
18839;DHT22;9548;56.920;14.804;2022-11-15T12:11:37;8.70;99.90
18839;DHT22;9548;56.920;14.804;2022-11-15T12:14:16;8.70;99.90
18839;DHT22;9548;56.920;14.804;2022-11-15T12:16:47;8.70;99.90
18839;DHT22;9548;56.920;14.804;2022-11-15T12:19:14;8.70;99.90
18839;DHT22;9548;56.920;14.804;2022-11-15T12:21:46;8.60;99.90
18839;DHT22;9548;56.920;14.804;2022-11-15T12:24:18;8.70;99.90
18839;DHT22;9548;56.920;14.804;2022-11-15T12:26:50;8.70;99.90
18839;DHT22;9548;56.920;14.804;2022-11-15T12:29:22;8.70;99.90
18839;DHT22;9548;56.920;14.804;2022-11-15T12:31:53;8.70;99.90
18839;DHT22;9548;56.920;14.804;2022-11-15T12:34:42;8.70;99.90
18839;DHT22;9548;56.920;14.804;2022-11-15T12:40:20;8.80;99.90
18839;DHT22;9548;56.920;14.804;2022-11-15T12:43:02;8.90;99.90
18839;DHT22;9548;56.920;14.804;2022-11-15T12:45:31;8.90;99.90
18839;DHT22;9548;56.920;14.804;2022-11-15T12:54:53;9.30;99.90
18839;DHT22;9548;56.920;14.804;2022-11-15T12:57:41;9.40;99.90
18839;DHT22;9548;56.920;14.804;2022-11-15T13:03:25;9.40;99.90
18839;DHT22;9548;56.920;14.804;2022-11-15T13:06:02;9.30;99.90
18839;DHT22;9548;56.920;14.804;2022-11-15T13:08:43;9.20;99.90
18839;DHT22;9548;56.920;14.804;2022-11-15T13:11:44;9.00;99.90
18839;DHT22;9548;56.920;14.804;2022-11-15T13:14:41;8.90;99.90
18839;DHT22;9548;56.920;14.804;2022-11-15T13:20:20;8.70;99.90
18839;DHT22;9548;56.920;14.804;2022-11-15T13:22:49;8.50;99.90
18839;DHT22;9548;56.920;14.804;2022-11-15T13:28:31;8.30;99.90
18839;DHT22;9548;56.920;14.804;2022-11-15T13:31:00;8.30;99.90
18839;DHT22;9548;56.920;14.804;2022-11-15T13:58:11;8.00;99.90
18839;DHT22;9548;56.920;14.804;2022-11-15T14:00:40;8.00;99.90
18839;DHT22;9548;56.920;14.804;2022-11-15T14:03:16;8.00;99.90
18839;DHT22;9548;56.920;14.804;2022-11-15T14:05:46;8.00;99.90
18839;DHT22;9548;56.920;14.804;2022-11-15T14:08:29;8.00;99.90
18839;DHT22;9548;56.920;14.804;2022-11-15T14:11:07;8.00;99.90
18839;DHT22;9548;56.920;14.804;2022-11-15T14:13:35;8.00;99.90
18839;DHT22;9548;56.920;14.804;2022-11-15T14:16:17;8.00;99.90
18839;DHT22;9548;56.920;14.804;2022-11-15T14:18:46;8.00;99.90
18839;DHT22;9548;56.920;14.804;2022-11-15T14:21:14;8.00;99.90
18839;DHT22;9548;56.920;14.804;2022-11-15T14:23:41;7.90;99.90
18839;DHT22;9548;56.920;14.804;2022-11-15T14:26:26;7.90;99.90
18839;DHT22;9548;56.920;14.804;2022-11-15T14:28:54;7.90;99.90
18839;DHT22;9548;56.920;14.804;2022-11-15T14:31:22;7.90;99.90
18839;DHT22;9548;56.920;14.804;2022-11-15T14:33:49;7.70;99.90
18839;DHT22;9548;56.920;14.804;2022-11-15T14:36:17;7.60;99.90
18839;DHT22;9548;56.920;14.804;2022-11-15T14:38:45;7.50;99.90
18839;DHT22;9548;56.920;14.804;2022-11-15T14:41:18;7.40;99.90
18839;DHT22;9548;56.920;14.804;2022-11-15T14:43:46;7.30;99.90
18839;DHT22;9548;56.920;14.804;2022-11-15T14:46:14;7.10;99.90
18839;DHT22;9548;56.920;14.804;2022-11-15T14:48:41;7.10;99.90
18839;DHT22;9548;56.920;14.804;2022-11-15T14:51:13;7.00;99.90
18839;DHT22;9548;56.920;14.804;2022-11-15T14:53:40;7.00;99.90
18839;DHT22;9548;56.920;14.804;2022-11-15T14:56:07;6.90;99.90
18839;DHT22;9548;56.920;14.804;2022-11-15T14:58:34;6.90;99.90
18839;DHT22;9548;56.920;14.804;2022-11-15T15:01:03;6.90;99.90
18839;DHT22;9548;56.920;14.804;2022-11-15T15:03:36;6.80;99.90
18839;DHT22;9548;56.920;14.804;2022-11-15T15:06:03;6.80;99.90
18839;DHT22;9548;56.920;14.804;2022-11-15T15:08:30;6.80;99.90
18839;DHT22;9548;56.920;14.804;2022-11-15T15:10:57;6.70;99.90
18839;DHT22;9548;56.920;14.804;2022-11-15T15:13:25;6.70;99.90
18839;DHT22;9548;56.920;14.804;2022-11-15T15:15:54;6.70;99.90
18839;DHT22;9548;56.920;14.804;2022-11-15T15:18:21;6.70;99.90
18839;DHT22;9548;56.920;14.804;2022-11-15T15:20:54;6.60;99.90
18839;DHT22;9548;56.920;14.804;2022-11-15T15:23:22;6.60;99.90
18839;DHT22;9548;56.920;14.804;2022-11-15T15:25:51;6.60;99.90
18839;DHT22;9548;56.920;14.804;2022-11-15T15:28:18;6.60;99.90
18839;DHT22;9548;56.920;14.804;2022-11-15T15:30:45;6.70;99.90
18839;DHT22;9548;56.920;14.804;2022-11-15T15:33:12;6.70;99.90
18839;DHT22;9548;56.920;14.804;2022-11-15T15:35:39;6.70;99.90
18839;DHT22;9548;56.920;14.804;2022-11-15T15:38:10;6.70;99.90
18839;DHT22;9548;56.920;14.804;2022-11-15T15:40:37;6.70;99.90
18839;DHT22;9548;56.920;14.804;2022-11-15T15:43:03;6.70;99.90
18839;DHT22;9548;56.920;14.804;2022-11-15T15:45:36;6.70;99.90
18839;DHT22;9548;56.920;14.804;2022-11-15T15:48:03;6.80;99.90
18839;DHT22;9548;56.920;14.804;2022-11-15T15:50:33;6.80;99.90
18839;DHT22;9548;56.920;14.804;2022-11-15T15:53:02;6.80;99.90
18839;DHT22;9548;56.920;14.804;2022-11-15T15:55:31;6.70;99.90
18839;DHT22;9548;56.920;14.804;2022-11-15T15:57:58;6.60;99.90
18839;DHT22;9548;56.920;14.804;2022-11-15T16:00:25;6.50;99.90
18839;DHT22;9548;56.920;14.804;2022-11-15T16:02:53;6.40;99.90
18839;DHT22;9548;56.920;14.804;2022-11-15T16:05:20;6.30;99.90
18839;DHT22;9548;56.920;14.804;2022-11-15T16:07:48;6.30;99.90
18839;DHT22;9548;56.920;14.804;2022-11-15T16:10:20;6.30;99.90
18839;DHT22;9548;56.920;14.804;2022-11-15T16:12:49;6.20;99.90
18839;DHT22;9548;56.920;14.804;2022-11-15T16:15:16;6.20;99.90
18839;DHT22;9548;56.920;14.804;2022-11-15T16:17:47;6.30;99.90
18839;DHT22;9548;56.920;14.804;2022-11-15T16:20:24;6.30;99.90
18839;DHT22;9548;56.920;14.804;2022-11-15T16:22:53;6.40;99.90
18839;DHT22;9548;56.920;14.804;2022-11-15T16:25:19;6.40;99.90
18839;DHT22;9548;56.920;14.804;2022-11-15T16:27:46;6.50;99.90
18839;DHT22;9548;56.920;14.804;2022-11-15T16:30:16;6.50;99.90
18839;DHT22;9548;56.920;14.804;2022-11-15T16:32:44;6.50;99.90
18839;DHT22;9548;56.920;14.804;2022-11-15T16:35:11;6.60;99.90
18839;DHT22;9548;56.920;14.804;2022-11-15T16:37:38;6.50;99.90
18839;DHT22;9548;56.920;14.804;2022-11-15T16:40:14;6.60;99.90
18839;DHT22;9548;56.920;14.804;2022-11-15T16:42:43;6.60;99.90
18839;DHT22;9548;56.920;14.804;2022-11-15T16:45:11;6.60;99.90
18839;DHT22;9548;56.920;14.804;2022-11-15T16:47:40;6.50;99.90
18839;DHT22;9548;56.920;14.804;2022-11-15T16:50:13;6.50;99.90
18839;DHT22;9548;56.920;14.804;2022-11-15T16:52:51;6.50;99.90
18839;DHT22;9548;56.920;14.804;2022-11-15T16:55:19;6.50;99.90
18839;DHT22;9548;56.920;14.804;2022-11-15T16:57:46;6.50;99.90
18839;DHT22;9548;56.920;14.804;2022-11-15T17:00:14;6.50;99.90
18839;DHT22;9548;56.920;14.804;2022-11-15T17:02:43;6.50;99.90
18839;DHT22;9548;56.920;14.804;2022-11-15T17:05:13;6.50;99.90
18839;DHT22;9548;56.920;14.804;2022-11-15T17:07:50;6.50;99.90
18839;DHT22;9548;56.920;14.804;2022-11-15T17:10:19;6.50;99.90
18839;DHT22;9548;56.920;14.804;2022-11-15T17:12:47;6.50;99.90
18839;DHT22;9548;56.920;14.804;2022-11-15T17:15:15;6.50;99.90
18839;DHT22;9548;56.920;14.804;2022-11-15T17:17:43;6.50;99.90
18839;DHT22;9548;56.920;14.804;2022-11-15T17:20:14;6.50;99.90
18839;DHT22;9548;56.920;14.804;2022-11-15T17:22:41;6.40;99.90
18839;DHT22;9548;56.920;14.804;2022-11-15T17:25:09;6.40;99.90
18839;DHT22;9548;56.920;14.804;2022-11-15T17:27:36;6.40;99.90
18839;DHT22;9548;56.920;14.804;2022-11-15T17:30:04;6.30;99.90
18839;DHT22;9548;56.920;14.804;2022-11-15T17:32:31;6.30;99.90
18839;DHT22;9548;56.920;14.804;2022-11-15T17:34:59;6.30;99.90
18839;DHT22;9548;56.920;14.804;2022-11-15T17:37:26;6.40;99.90
18839;DHT22;9548;56.920;14.804;2022-11-15T17:39:53;6.30;99.90
18839;DHT22;9548;56.920;14.804;2022-11-15T17:42:20;6.40;99.90
18839;DHT22;9548;56.920;14.804;2022-11-15T17:44:47;6.40;99.90
18839;DHT22;9548;56.920;14.804;2022-11-15T17:47:14;6.40;99.90
18839;DHT22;9548;56.920;14.804;2022-11-15T17:49:41;6.40;99.90
18839;DHT22;9548;56.920;14.804;2022-11-15T17:52:10;6.40;99.90
18839;DHT22;9548;56.920;14.804;2022-11-15T17:54:37;6.40;99.90
18839;DHT22;9548;56.920;14.804;2022-11-15T17:57:04;6.40;99.90
18839;DHT22;9548;56.920;14.804;2022-11-15T17:59:31;6.40;99.90
18839;DHT22;9548;56.920;14.804;2022-11-15T18:01:58;6.40;99.90
18839;DHT22;9548;56.920;14.804;2022-11-15T18:04:25;6.40;99.90
18839;DHT22;9548;56.920;14.804;2022-11-15T18:06:53;6.40;99.90
18839;DHT22;9548;56.920;14.804;2022-11-15T18:09:22;6.40;99.90
18839;DHT22;9548;56.920;14.804;2022-11-15T18:11:51;6.40;99.90
18839;DHT22;9548;56.920;14.804;2022-11-15T18:14:19;6.40;99.90
18839;DHT22;9548;56.920;14.804;2022-11-15T18:16:46;6.40;99.90
18839;DHT22;9548;56.920;14.804;2022-11-15T18:19:13;6.40;99.90
18839;DHT22;9548;56.920;14.804;2022-11-15T18:21:41;6.40;99.90
18839;DHT22;9548;56.920;14.804;2022-11-15T18:24:28;6.40;99.90
18839;DHT22;9548;56.920;14.804;2022-11-15T18:26:55;6.40;99.90
18839;DHT22;9548;56.920;14.804;2022-11-15T18:29:22;6.40;99.90
18839;DHT22;9548;56.920;14.804;2022-11-15T18:31:50;6.50;99.90
18839;DHT22;9548;56.920;14.804;2022-11-15T18:34:20;6.40;99.90
18839;DHT22;9548;56.920;14.804;2022-11-15T18:36:49;6.40;99.90
18839;DHT22;9548;56.920;14.804;2022-11-15T18:39:16;6.40;99.90
18839;DHT22;9548;56.920;14.804;2022-11-15T18:41:44;6.40;99.90
18839;DHT22;9548;56.920;14.804;2022-11-15T18:44:13;6.40;99.90
18839;DHT22;9548;56.920;14.804;2022-11-15T18:46:41;6.40;99.90
18839;DHT22;9548;56.920;14.804;2022-11-15T18:49:10;6.40;99.90
18839;DHT22;9548;56.920;14.804;2022-11-15T18:51:38;6.40;99.90
18839;DHT22;9548;56.920;14.804;2022-11-15T18:54:08;6.40;99.90
18839;DHT22;9548;56.920;14.804;2022-11-15T18:56:35;6.40;99.90
18839;DHT22;9548;56.920;14.804;2022-11-15T18:59:04;6.40;99.90
18839;DHT22;9548;56.920;14.804;2022-11-15T19:01:34;6.40;99.90
18839;DHT22;9548;56.920;14.804;2022-11-15T19:04:04;6.40;99.90
18839;DHT22;9548;56.920;14.804;2022-11-15T19:06:31;6.40;99.90
18839;DHT22;9548;56.920;14.804;2022-11-15T19:08:59;6.40;99.90
18839;DHT22;9548;56.920;14.804;2022-11-15T19:11:28;6.40;99.90
18839;DHT22;9548;56.920;14.804;2022-11-15T19:13:57;6.40;99.90
18839;DHT22;9548;56.920;14.804;2022-11-15T19:16:26;6.40;99.90
18839;DHT22;9548;56.920;14.804;2022-11-15T19:18:54;6.40;99.90
18839;DHT22;9548;56.920;14.804;2022-11-15T19:21:21;6.40;99.90
18839;DHT22;9548;56.920;14.804;2022-11-15T19:23:49;6.40;99.90
18839;DHT22;9548;56.920;14.804;2022-11-15T19:26:17;6.30;99.90
18839;DHT22;9548;56.920;14.804;2022-11-15T19:28:44;6.40;99.90
18839;DHT22;9548;56.920;14.804;2022-11-15T19:31:12;6.30;99.90
18839;DHT22;9548;56.920;14.804;2022-11-15T19:33:42;6.40;99.90
18839;DHT22;9548;56.920;14.804;2022-11-15T19:36:11;6.40;99.90
18839;DHT22;9548;56.920;14.804;2022-11-15T19:38:39;6.40;99.90
18839;DHT22;9548;56.920;14.804;2022-11-15T19:41:08;6.40;99.90
18839;DHT22;9548;56.920;14.804;2022-11-15T19:43:36;6.40;99.90
18839;DHT22;9548;56.920;14.804;2022-11-15T19:46:04;6.30;99.90
18839;DHT22;9548;56.920;14.804;2022-11-15T19:48:32;6.40;99.90
18839;DHT22;9548;56.920;14.804;2022-11-15T19:51:02;6.30;99.90
18839;DHT22;9548;56.920;14.804;2022-11-15T19:53:29;6.30;99.90
18839;DHT22;9548;56.920;14.804;2022-11-15T19:55:58;6.30;99.90
18839;DHT22;9548;56.920;14.804;2022-11-15T19:58:25;6.30;99.90
18839;DHT22;9548;56.920;14.804;2022-11-15T20:00:59;6.30;99.90
18839;DHT22;9548;56.920;14.804;2022-11-15T20:03:27;6.30;99.90
18839;DHT22;9548;56.920;14.804;2022-11-15T20:06:01;6.30;99.90
18839;DHT22;9548;56.920;14.804;2022-11-15T20:08:29;6.30;99.90
18839;DHT22;9548;56.920;14.804;2022-11-15T20:10:57;6.30;99.90
18839;DHT22;9548;56.920;14.804;2022-11-15T20:13:25;6.20;99.90
18839;DHT22;9548;56.920;14.804;2022-11-15T20:15:52;6.30;99.90
18839;DHT22;9548;56.920;14.804;2022-11-15T20:18:20;6.30;99.90
18839;DHT22;9548;56.920;14.804;2022-11-15T20:20:48;6.30;99.90
18839;DHT22;9548;56.920;14.804;2022-11-15T20:23:18;6.30;99.90
18839;DHT22;9548;56.920;14.804;2022-11-15T20:25:46;6.30;99.90
18839;DHT22;9548;56.920;14.804;2022-11-15T20:28:15;6.20;99.90
18839;DHT22;9548;56.920;14.804;2022-11-15T20:30:42;6.20;99.90
18839;DHT22;9548;56.920;14.804;2022-11-15T20:33:10;6.20;99.90
18839;DHT22;9548;56.920;14.804;2022-11-15T20:35:37;6.10;99.90
18839;DHT22;9548;56.920;14.804;2022-11-15T20:38:05;6.10;99.90
18839;DHT22;9548;56.920;14.804;2022-11-15T20:40:34;6.10;99.90
18839;DHT22;9548;56.920;14.804;2022-11-15T20:43:00;6.00;99.90
18839;DHT22;9548;56.920;14.804;2022-11-15T20:45:28;6.00;99.90
18839;DHT22;9548;56.920;14.804;2022-11-15T20:47:55;6.00;99.90
18839;DHT22;9548;56.920;14.804;2022-11-15T20:50:22;6.00;99.90
18839;DHT22;9548;56.920;14.804;2022-11-15T20:52:49;6.00;99.90
18839;DHT22;9548;56.920;14.804;2022-11-15T20:55:17;5.90;99.90
18839;DHT22;9548;56.920;14.804;2022-11-15T20:57:45;6.00;99.90
18839;DHT22;9548;56.920;14.804;2022-11-15T21:00:13;6.00;99.90
18839;DHT22;9548;56.920;14.804;2022-11-15T21:02:40;6.00;99.90
18839;DHT22;9548;56.920;14.804;2022-11-15T21:05:08;6.00;99.90
18839;DHT22;9548;56.920;14.804;2022-11-15T21:07:35;5.90;99.90
18839;DHT22;9548;56.920;14.804;2022-11-15T21:10:02;5.90;99.90
18839;DHT22;9548;56.920;14.804;2022-11-15T21:12:48;5.90;99.90
18839;DHT22;9548;56.920;14.804;2022-11-15T21:15:15;5.90;99.90
18839;DHT22;9548;56.920;14.804;2022-11-15T21:17:43;5.90;99.90
18839;DHT22;9548;56.920;14.804;2022-11-15T21:20:11;5.90;99.90
18839;DHT22;9548;56.920;14.804;2022-11-15T21:22:38;5.90;99.90
18839;DHT22;9548;56.920;14.804;2022-11-15T21:25:05;5.90;99.90
18839;DHT22;9548;56.920;14.804;2022-11-15T21:27:32;5.90;99.90
18839;DHT22;9548;56.920;14.804;2022-11-15T21:30:01;5.90;99.90
18839;DHT22;9548;56.920;14.804;2022-11-15T21:32:27;5.90;99.90
18839;DHT22;9548;56.920;14.804;2022-11-15T21:34:55;5.80;99.90
18839;DHT22;9548;56.920;14.804;2022-11-15T21:37:21;5.80;99.90
18839;DHT22;9548;56.920;14.804;2022-11-15T21:39:48;5.90;99.90
18839;DHT22;9548;56.920;14.804;2022-11-15T21:42:15;5.90;99.90
18839;DHT22;9548;56.920;14.804;2022-11-15T21:44:42;5.90;99.90
18839;DHT22;9548;56.920;14.804;2022-11-15T21:47:10;5.90;99.90
18839;DHT22;9548;56.920;14.804;2022-11-15T21:49:37;5.90;99.90
18839;DHT22;9548;56.920;14.804;2022-11-15T21:52:04;5.90;99.90
18839;DHT22;9548;56.920;14.804;2022-11-15T21:54:31;5.90;99.90
18839;DHT22;9548;56.920;14.804;2022-11-15T21:56:58;5.90;99.90
18839;DHT22;9548;56.920;14.804;2022-11-15T21:59:26;5.90;99.90
18839;DHT22;9548;56.920;14.804;2022-11-15T22:01:53;5.90;99.90
18839;DHT22;9548;56.920;14.804;2022-11-15T22:04:39;5.90;99.90
18839;DHT22;9548;56.920;14.804;2022-11-15T22:07:06;5.90;99.90
18839;DHT22;9548;56.920;14.804;2022-11-15T22:09:33;5.90;99.90
18839;DHT22;9548;56.920;14.804;2022-11-15T22:11:59;5.90;99.90
18839;DHT22;9548;56.920;14.804;2022-11-15T22:14:26;5.90;99.90
18839;DHT22;9548;56.920;14.804;2022-11-15T22:16:53;5.90;99.90
18839;DHT22;9548;56.920;14.804;2022-11-15T22:19:20;5.90;99.90
18839;DHT22;9548;56.920;14.804;2022-11-15T22:21:49;5.90;99.90
18839;DHT22;9548;56.920;14.804;2022-11-15T22:24:16;5.90;99.90
18839;DHT22;9548;56.920;14.804;2022-11-15T22:26:43;5.90;99.90
18839;DHT22;9548;56.920;14.804;2022-11-15T22:29:10;5.90;99.90
18839;DHT22;9548;56.920;14.804;2022-11-15T22:31:37;6.00;99.90
18839;DHT22;9548;56.920;14.804;2022-11-15T22:34:04;6.00;99.90
18839;DHT22;9548;56.920;14.804;2022-11-15T22:36:31;6.00;99.90
18839;DHT22;9548;56.920;14.804;2022-11-15T22:39:00;5.90;99.90
18839;DHT22;9548;56.920;14.804;2022-11-15T22:41:27;5.90;99.90
18839;DHT22;9548;56.920;14.804;2022-11-15T22:43:54;5.90;99.90
18839;DHT22;9548;56.920;14.804;2022-11-15T22:46:20;5.90;99.90
18839;DHT22;9548;56.920;14.804;2022-11-15T22:48:48;6.00;99.90
18839;DHT22;9548;56.920;14.804;2022-11-15T22:51:14;6.00;99.90
18839;DHT22;9548;56.920;14.804;2022-11-15T22:53:41;6.00;99.90
18839;DHT22;9548;56.920;14.804;2022-11-15T22:56:10;6.00;99.90
18839;DHT22;9548;56.920;14.804;2022-11-15T22:58:38;5.90;99.90
18839;DHT22;9548;56.920;14.804;2022-11-15T23:01:05;5.90;99.90
18839;DHT22;9548;56.920;14.804;2022-11-15T23:03:33;5.90;99.90
18839;DHT22;9548;56.920;14.804;2022-11-15T23:06:01;5.90;99.90
18839;DHT22;9548;56.920;14.804;2022-11-15T23:08:28;5.90;99.90
18839;DHT22;9548;56.920;14.804;2022-11-15T23:10:58;5.90;99.90
18839;DHT22;9548;56.920;14.804;2022-11-15T23:13:44;5.90;99.90
18839;DHT22;9548;56.920;14.804;2022-11-15T23:16:11;5.90;99.90
18839;DHT22;9548;56.920;14.804;2022-11-15T23:19:00;5.90;99.90
18839;DHT22;9548;56.920;14.804;2022-11-15T23:21:30;5.90;99.90
18839;DHT22;9548;56.920;14.804;2022-11-15T23:24:20;5.90;99.90
18839;DHT22;9548;56.920;14.804;2022-11-15T23:26:49;5.90;99.90
18839;DHT22;9548;56.920;14.804;2022-11-15T23:29:20;5.90;99.90
18839;DHT22;9548;56.920;14.804;2022-11-15T23:31:49;5.90;99.90
18839;DHT22;9548;56.920;14.804;2022-11-15T23:34:35;5.90;99.90
18839;DHT22;9548;56.920;14.804;2022-11-15T23:37:03;5.90;99.90
18839;DHT22;9548;56.920;14.804;2022-11-15T23:39:30;5.90;99.90
18839;DHT22;9548;56.920;14.804;2022-11-15T23:41:58;5.90;99.90
18839;DHT22;9548;56.920;14.804;2022-11-15T23:44:26;5.90;99.90
18839;DHT22;9548;56.920;14.804;2022-11-15T23:46:53;5.90;99.90
18839;DHT22;9548;56.920;14.804;2022-11-15T23:49:20;5.90;99.90
18839;DHT22;9548;56.920;14.804;2022-11-15T23:51:48;5.90;99.90
18839;DHT22;9548;56.920;14.804;2022-11-15T23:54:15;5.90;99.90
18839;DHT22;9548;56.920;14.804;2022-11-15T23:56:42;5.80;99.90
18839;DHT22;9548;56.920;14.804;2022-11-15T23:59:09;5.90;99.90
